createdAt,value
2018-04-16T00:01:08.806Z,100321
2018-04-16T00:03:37.168Z,100317
2018-04-16T00:06:05.536Z,100309
2018-04-16T00:08:33.863Z,100308
2018-04-16T00:11:02.225Z,100307
2018-04-16T00:13:31.314Z,100307
2018-04-16T00:16:00.495Z,100306
2018-04-16T00:18:28.811Z,100305
2018-04-16T00:20:57.182Z,100307
2018-04-16T00:23:26.738Z,100308
2018-04-16T00:25:55.171Z,100310
2018-04-16T00:28:23.460Z,100312
2018-04-16T00:30:51.810Z,100316
2018-04-16T00:33:26.371Z,100311
2018-04-16T00:36:00.194Z,100312
2018-04-16T00:38:33.847Z,100307
2018-04-16T00:41:09.584Z,100311
2018-04-16T00:43:43.600Z,100314
2018-04-16T00:46:18.325Z,100311
2018-04-16T00:48:52.889Z,100320
2018-04-16T00:51:26.666Z,100329
2018-04-16T00:54:18.280Z,100321
2018-04-16T00:56:53.111Z,100320
2018-04-16T00:59:27.865Z,100322
2018-04-16T01:02:01.791Z,100326
2018-04-16T01:04:35.790Z,100329
2018-04-16T01:07:09.691Z,100332
2018-04-16T01:09:43.450Z,100341
2018-04-16T01:12:17.757Z,100338
2018-04-16T01:14:51.719Z,100338
2018-04-16T01:17:25.888Z,100338
2018-04-16T01:19:59.965Z,100337
2018-04-16T01:22:33.700Z,100340
2018-04-16T01:25:07.449Z,100339
2018-04-16T01:27:41.396Z,100343
2018-04-16T01:30:15.421Z,100344
2018-04-16T01:32:49.210Z,100346
2018-04-16T01:35:22.955Z,100345
2018-04-16T01:37:56.825Z,100345
2018-04-16T01:40:30.490Z,100346
2018-04-16T01:43:05.417Z,100346
2018-04-16T01:45:39.928Z,100345
2018-04-16T01:48:14.458Z,100354
2018-04-16T01:50:48.950Z,100359
2018-04-16T01:53:23.633Z,100355
2018-04-16T01:55:57.460Z,100358
2018-04-16T01:58:31.230Z,100355
2018-04-16T02:01:05.046Z,100349
2018-04-16T02:03:38.830Z,100355
2018-04-16T02:06:14.766Z,100353
2018-04-16T02:08:48.922Z,100354
2018-04-16T02:11:22.927Z,100360
2018-04-16T02:13:56.924Z,100358
2018-04-16T02:16:31.007Z,100352
2018-04-16T02:19:04.788Z,100354
2018-04-16T02:21:38.724Z,100355
2018-04-16T02:24:13.394Z,100348
2018-04-16T02:26:47.336Z,100348
2018-04-16T02:29:21.278Z,100352
2018-04-16T02:31:55.941Z,100350
2018-04-16T02:34:29.691Z,100348
2018-04-16T02:37:04.439Z,100345
2018-04-16T02:39:39.190Z,100347
2018-04-16T02:42:12.975Z,100350
2018-04-16T02:44:47.491Z,100347
2018-04-16T02:47:21.434Z,100352
2018-04-16T02:49:55.361Z,100345
2018-04-16T02:52:29.127Z,100355
2018-04-16T02:55:03.783Z,100359
2018-04-16T03:00:45.139Z,100356
2018-04-16T03:03:19.714Z,100356
2018-04-16T03:05:53.766Z,100358
2018-04-16T03:08:27.531Z,100356
2018-04-16T03:11:01.302Z,100364
2018-04-16T03:13:35.293Z,100363
2018-04-16T03:16:09.753Z,100363
2018-04-16T03:18:43.472Z,100363
2018-04-16T03:21:17.521Z,100367
2018-04-16T03:23:52.281Z,100367
2018-04-16T03:29:27.823Z,100368
2018-04-16T03:32:02.634Z,100367
2018-04-16T03:34:36.399Z,100370
2018-04-16T03:37:10.272Z,100375
2018-04-16T03:39:44.894Z,100378
2018-04-16T03:42:19.809Z,100378
2018-04-16T03:44:53.523Z,100376
2018-04-16T03:47:28.222Z,100391
2018-04-16T03:50:02.215Z,100387
2018-04-16T03:52:35.993Z,100399
2018-04-16T03:55:04.424Z,100402
2018-04-16T03:57:32.718Z,100405
2018-04-16T04:00:01.801Z,100407
2018-04-16T04:02:30.294Z,100403
2018-04-16T04:04:58.597Z,100410
2018-04-16T04:07:26.951Z,100413
2018-04-16T04:09:56.113Z,100407
2018-04-16T04:12:24.567Z,100416
2018-04-16T04:14:52.932Z,100420
2018-04-16T04:17:21.581Z,100422
2018-04-16T04:19:49.969Z,100426
2018-04-16T04:22:18.232Z,100425
2018-04-16T04:25:04.352Z,100432
2018-04-16T04:30:45.801Z,100430
2018-04-16T04:33:14.282Z,100433
2018-04-16T04:35:42.705Z,100434
2018-04-16T04:38:11.856Z,100437
2018-04-16T04:40:40.260Z,100441
2018-04-16T04:43:08.713Z,100446
2018-04-16T04:45:37.049Z,100449
2018-04-16T04:48:06.149Z,100452
2018-04-16T04:50:35.222Z,100456
2018-04-16T04:53:03.551Z,100465
2018-04-16T04:55:31.936Z,100462
2018-04-16T04:58:00.696Z,100457
2018-04-16T05:00:29.102Z,100458
2018-04-16T05:02:58.592Z,100464
2018-04-16T05:05:28.536Z,100462
2018-04-16T05:07:58.452Z,100465
2018-04-16T05:10:28.773Z,100471
2018-04-16T05:12:57.070Z,100469
2018-04-16T05:15:25.463Z,100464
2018-04-16T05:17:54.544Z,100469
2018-04-16T05:20:23.039Z,100472
2018-04-16T05:22:51.372Z,100479
2018-04-16T05:25:19.687Z,100486
2018-04-16T05:27:48.154Z,100491
2018-04-16T05:30:16.616Z,100490
2018-04-16T05:32:44.972Z,100496
2018-04-16T05:35:13.267Z,100499
2018-04-16T05:37:41.663Z,100499
2018-04-16T05:40:10.452Z,100492
2018-04-16T05:42:39.828Z,100496
2018-04-16T05:45:08.227Z,100505
2018-04-16T05:47:36.504Z,100505
2018-04-16T05:50:04.778Z,100506
2018-04-16T05:52:33.102Z,100507
2018-04-16T05:55:02.207Z,100506
2018-04-16T05:57:31.973Z,100514
2018-04-16T06:00:00.439Z,100524
2018-04-16T06:02:28.846Z,100523
2018-04-16T06:04:57.167Z,100527
2018-04-16T06:07:25.446Z,100527
2018-04-16T06:09:53.818Z,100532
2018-04-16T06:12:22.139Z,100529
2018-04-16T06:14:50.447Z,100536
2018-04-16T06:17:19.788Z,100535
2018-04-16T06:19:48.052Z,100542
2018-04-16T06:22:16.719Z,100540
2018-04-16T06:24:45.224Z,100548
2018-04-16T06:27:13.579Z,100542
2018-04-16T06:29:42.653Z,100543
2018-04-16T06:32:10.959Z,100548
2018-04-16T06:34:39.352Z,100551
2018-04-16T06:37:07.703Z,100548
2018-04-16T06:39:36.908Z,100547
2018-04-16T06:42:05.399Z,100549
2018-04-16T06:44:33.975Z,100550
2018-04-16T06:47:02.264Z,100552
2018-04-16T06:49:30.687Z,100556
2018-04-16T06:51:59.196Z,100562
2018-04-16T06:54:28.256Z,100564
2018-04-16T06:56:56.602Z,100566
2018-04-16T06:59:26.236Z,100566
2018-04-16T07:01:54.606Z,100571
2018-04-16T07:04:22.965Z,100572
2018-04-16T07:06:51.277Z,100571
2018-04-16T07:09:19.630Z,100578
2018-04-16T07:11:48.020Z,100580
2018-04-16T07:14:16.670Z,100580
2018-04-16T07:16:45.140Z,100577
2018-04-16T07:19:13.504Z,100576
2018-04-16T07:21:42.550Z,100574
2018-04-16T07:24:11.543Z,100574
2018-04-16T07:26:39.945Z,100577
2018-04-16T07:29:08.455Z,100573
2018-04-16T07:31:36.983Z,100582
2018-04-16T07:34:05.423Z,100588
2018-04-16T07:36:33.730Z,100594
2018-04-16T07:39:02.065Z,100600
2018-04-16T07:41:30.344Z,100602
2018-04-16T07:43:59.415Z,100607
2018-04-16T07:46:27.847Z,100611
2018-04-16T07:48:56.193Z,100609
2018-04-16T07:51:25.371Z,100609
2018-04-16T07:53:54.580Z,100610
2018-04-16T07:56:22.851Z,100613
2018-04-16T07:58:51.235Z,100617
2018-04-16T08:01:21.503Z,100623
2018-04-16T08:03:49.812Z,100622
2018-04-16T08:06:18.141Z,100622
2018-04-16T08:08:46.502Z,100626
2018-04-16T08:11:15.700Z,100630
2018-04-16T08:13:44.877Z,100630
2018-04-16T08:16:13.311Z,100630
2018-04-16T08:18:42.781Z,100624
2018-04-16T08:21:11.872Z,100627
2018-04-16T08:23:41.143Z,100622
2018-04-16T08:26:09.475Z,100623
2018-04-16T08:28:37.787Z,100626
2018-04-16T08:31:06.113Z,100623
2018-04-16T08:33:35.351Z,100627
2018-04-16T08:36:05.009Z,100631
2018-04-16T08:38:34.211Z,100634
2018-04-16T08:41:03.647Z,100633
2018-04-16T08:43:32.035Z,100636
2018-04-16T08:46:00.373Z,100640
2018-04-16T08:48:29.488Z,100643
2018-04-16T08:50:57.807Z,100652
2018-04-16T08:53:26.127Z,100641
2018-04-16T08:55:55.224Z,100652
2018-04-16T08:58:23.538Z,100651
2018-04-16T09:00:52.008Z,100644
2018-04-16T09:03:20.526Z,100648
2018-04-16T09:05:48.987Z,100652
2018-04-16T09:08:18.929Z,100657
2018-04-16T09:10:47.273Z,100655
2018-04-16T09:13:15.726Z,100659
2018-04-16T09:15:44.053Z,100658
2018-04-16T09:18:12.364Z,100667
2018-04-16T09:20:41.677Z,100669
2018-04-16T09:23:10.078Z,100662
2018-04-16T09:25:38.428Z,100675
2018-04-16T09:28:07.684Z,100681
2018-04-16T09:30:36.011Z,100683
2018-04-16T09:33:04.449Z,100667
2018-04-16T09:35:32.888Z,100674
2018-04-16T09:38:01.305Z,100672
2018-04-16T09:40:29.638Z,100676
2018-04-16T09:42:57.952Z,100679
2018-04-16T09:45:26.253Z,100678
2018-04-16T09:47:54.865Z,100680
2018-04-16T09:50:23.342Z,100678
2018-04-16T09:52:51.629Z,100688
2018-04-16T09:55:19.983Z,100681
2018-04-16T09:57:49.079Z,100683
2018-04-16T10:00:18.331Z,100683
2018-04-16T10:03:05.348Z,100685
2018-04-16T10:05:33.730Z,100679
2018-04-16T10:08:02.168Z,100684
2018-04-16T10:10:30.680Z,100685
2018-04-16T10:12:59.139Z,100687
2018-04-16T10:15:27.604Z,100689
2018-04-16T10:17:55.917Z,100690
2018-04-16T10:20:24.244Z,100686
2018-04-16T10:22:53.371Z,100685
2018-04-16T10:25:21.693Z,100688
2018-04-16T10:27:50.799Z,100679
2018-04-16T10:30:19.300Z,100684
2018-04-16T10:32:48.353Z,100690
2018-04-16T10:35:16.729Z,100671
2018-04-16T10:37:45.416Z,100674
2018-04-16T10:40:14.376Z,100674
2018-04-16T10:42:42.719Z,100676
2018-04-16T10:45:11.110Z,100673
2018-04-16T10:47:40.373Z,100674
2018-04-16T10:50:08.697Z,100680
2018-04-16T10:52:37.009Z,100683
2018-04-16T10:55:05.365Z,100695
2018-04-16T10:57:33.817Z,100695
2018-04-16T11:02:38.189Z,100691
2018-04-16T11:05:06.553Z,100685
2018-04-16T11:07:36.128Z,100686
2018-04-16T11:10:05.348Z,100683
2018-04-16T11:12:33.699Z,100687
2018-04-16T11:15:02.796Z,100689
2018-04-16T11:17:31.190Z,100691
2018-04-16T11:19:59.490Z,100690
2018-04-16T11:22:27.874Z,100691
2018-04-16T11:24:56.171Z,100707
2018-04-16T11:27:24.606Z,100713
2018-04-16T11:29:53.154Z,100716
2018-04-16T11:32:21.471Z,100712
2018-04-16T11:34:49.878Z,100719
2018-04-16T11:37:18.324Z,100715
2018-04-16T11:39:47.463Z,100713
2018-04-16T11:42:15.765Z,100711
2018-04-16T11:44:44.079Z,100711
2018-04-16T11:47:13.275Z,100716
2018-04-16T11:49:41.745Z,100716
2018-04-16T11:52:10.980Z,100724
2018-04-16T11:54:39.302Z,100724
2018-04-16T11:57:07.671Z,100720
2018-04-16T11:59:36.014Z,100721
2018-04-16T12:02:04.309Z,100720
2018-04-16T12:04:32.670Z,100729
2018-04-16T12:07:00.995Z,100726
2018-04-16T12:09:29.334Z,100737
2018-04-16T12:11:57.720Z,100733
2018-04-16T12:14:26.206Z,100725
2018-04-16T12:16:54.714Z,100717
2018-04-16T12:19:23.945Z,100730
2018-04-16T12:21:52.265Z,100723
2018-04-16T12:24:20.696Z,100719
2018-04-16T12:26:49.099Z,100722
2018-04-16T12:29:17.636Z,100724
2018-04-16T12:31:46.799Z,100724
2018-04-16T12:34:15.285Z,100722
2018-04-16T12:36:43.622Z,100729
2018-04-16T12:39:13.653Z,100722
2018-04-16T12:41:42.049Z,100723
2018-04-16T12:44:10.566Z,100725
2018-04-16T12:46:39.654Z,100727
2018-04-16T12:49:08.071Z,100723
2018-04-16T12:51:36.406Z,100733
2018-04-16T12:54:05.031Z,100732
2018-04-16T12:56:33.511Z,100743
2018-04-16T12:59:01.890Z,100736
2018-04-16T13:01:30.257Z,100731
2018-04-16T13:03:58.550Z,100732
2018-04-16T13:06:27.321Z,100731
2018-04-16T13:08:55.816Z,100732
2018-04-16T13:11:24.151Z,100724
2018-04-16T13:13:52.460Z,100722
2018-04-16T13:16:20.797Z,100727
2018-04-16T13:18:49.291Z,100727
2018-04-16T13:21:17.785Z,100736
2018-04-16T13:23:47.355Z,100740
2018-04-16T13:26:15.889Z,100748
2018-04-16T13:28:44.378Z,100757
2018-04-16T13:31:12.712Z,100750
2018-04-16T13:33:41.895Z,100761
2018-04-16T13:36:11.148Z,100759
2018-04-16T13:38:39.507Z,100761
2018-04-16T13:41:07.832Z,100754
2018-04-16T13:43:36.184Z,100754
2018-04-16T13:46:04.631Z,100743
2018-04-16T13:48:33.014Z,100755
2018-04-16T13:51:02.180Z,100758
2018-04-16T13:53:30.590Z,100757
2018-04-16T13:55:59.694Z,100765
2018-04-16T13:58:28.804Z,100773
2018-04-16T14:00:57.121Z,100771
2018-04-16T14:03:25.455Z,100778
2018-04-16T14:05:53.889Z,100767
2018-04-16T14:08:22.380Z,100773
2018-04-16T14:10:50.735Z,100778
2018-04-16T14:13:19.092Z,100769
2018-04-16T14:15:47.598Z,100764
2018-04-16T14:18:15.975Z,100769
2018-04-16T14:20:44.384Z,100764
2018-04-16T14:23:12.809Z,100766
2018-04-16T14:25:41.172Z,100770
2018-04-16T14:28:09.566Z,100766
2018-04-16T14:30:37.906Z,100775
2018-04-16T14:33:06.989Z,100778
2018-04-16T14:35:35.440Z,100780
2018-04-16T14:38:03.804Z,100789
2018-04-16T14:40:32.424Z,100796
2018-04-16T14:43:01.971Z,100796
2018-04-16T14:45:30.469Z,100805
2018-04-16T14:47:58.998Z,100822
2018-04-16T14:50:27.368Z,100814
2018-04-16T14:52:55.690Z,100819
2018-04-16T14:55:24.094Z,100809
2018-04-16T14:57:52.578Z,100813
2018-04-16T15:00:21.359Z,100806
2018-04-16T15:02:49.645Z,100797
2018-04-16T15:05:18.011Z,100799
2018-04-16T15:07:46.371Z,100806
2018-04-16T15:10:14.838Z,100804
2018-04-16T15:12:43.277Z,100808
2018-04-16T15:15:11.690Z,100804
2018-04-16T15:17:40.236Z,100807
2018-04-16T15:20:08.605Z,100801
2018-04-16T15:22:37.126Z,100803
2018-04-16T15:25:05.546Z,100806
2018-04-16T15:27:33.908Z,100802
2018-04-16T15:30:02.356Z,100805
2018-04-16T15:32:30.792Z,100805
2018-04-16T15:34:59.174Z,100796
2018-04-16T15:37:27.493Z,100791
2018-04-16T15:39:56.030Z,100798
2018-04-16T15:42:24.354Z,100810
2018-04-16T15:44:52.782Z,100820
2018-04-16T15:47:21.129Z,100827
2018-04-16T15:49:49.795Z,100826
2018-04-16T15:52:18.265Z,100818
2018-04-16T15:54:46.630Z,100821
2018-04-16T15:57:15.033Z,100820
2018-04-16T15:59:43.325Z,100808
2018-04-16T16:02:12.521Z,100800
2018-04-16T16:04:41.634Z,100799
2018-04-16T16:07:11.129Z,100796
2018-04-16T16:09:40.239Z,100811
2018-04-16T16:12:08.684Z,100819
2018-04-16T16:14:37.864Z,100822
2018-04-16T16:17:06.231Z,100828
2018-04-16T16:19:34.575Z,100833
2018-04-16T16:22:03.077Z,100837
2018-04-16T16:24:31.568Z,100841
2018-04-16T16:26:59.849Z,100832
2018-04-16T16:29:28.500Z,100828
2018-04-16T16:31:57.113Z,100825
2018-04-16T16:34:25.702Z,100825
2018-04-16T16:36:54.053Z,100826
2018-04-16T16:39:22.547Z,100833
2018-04-16T16:41:51.176Z,100833
2018-04-16T16:44:20.457Z,100832
2018-04-16T16:46:48.804Z,100836
2018-04-16T16:49:17.095Z,100834
2018-04-16T16:51:45.584Z,100838
2018-04-16T16:54:14.640Z,100844
2018-04-16T16:56:43.687Z,100854
2018-04-16T16:59:12.114Z,100863
2018-04-16T17:01:40.479Z,100868
2018-04-16T17:04:09.024Z,100868
2018-04-16T17:06:37.432Z,100872
2018-04-16T17:09:07.757Z,100879
2018-04-16T17:11:37.235Z,100881
2018-04-16T17:14:06.263Z,100888
2018-04-16T17:16:34.788Z,100891
2018-04-16T17:19:03.924Z,100891
2018-04-16T17:21:33.294Z,100899
2018-04-16T17:24:02.443Z,100899
2018-04-16T17:26:30.814Z,100908
2018-04-16T17:29:00.074Z,100904
2018-04-16T17:31:28.717Z,100912
2018-04-16T17:33:57.119Z,100919
2018-04-16T17:36:26.310Z,100922
2018-04-16T17:38:54.853Z,100920
2018-04-16T17:41:23.256Z,100928
2018-04-16T17:43:51.760Z,100932
2018-04-16T17:46:20.197Z,100932
2018-04-16T17:48:48.566Z,100933
2018-04-16T17:51:17.732Z,100936
2018-04-16T17:53:46.276Z,100944
2018-04-16T17:56:14.861Z,100951
2018-04-16T17:58:43.364Z,100958
2018-04-16T18:01:11.842Z,100962
2018-04-16T18:03:40.299Z,100966
2018-04-16T18:06:08.946Z,100965
2018-04-16T18:08:38.092Z,100966
2018-04-16T18:11:06.589Z,100967
2018-04-16T18:13:35.148Z,100973
2018-04-16T18:16:04.835Z,100974
2018-04-16T18:18:33.356Z,100983
2018-04-16T18:21:01.726Z,100983
2018-04-16T18:23:30.411Z,100992
2018-04-16T18:25:59.099Z,101002
2018-04-16T18:28:27.497Z,101002
2018-04-16T18:30:55.958Z,101013
2018-04-16T18:33:24.408Z,101013
2018-04-16T18:35:52.795Z,101014
2018-04-16T18:38:21.211Z,101022
2018-04-16T18:40:49.674Z,101019
2018-04-16T18:43:18.077Z,101025
2018-04-16T18:45:46.571Z,101030
2018-04-16T18:48:15.047Z,101030
2018-04-16T18:50:43.534Z,101039
2018-04-16T18:53:11.898Z,101044
2018-04-16T18:55:40.238Z,101051
2018-04-16T18:58:08.762Z,101057
2018-04-16T19:00:37.130Z,101060
2018-04-16T19:03:05.681Z,101070
2018-04-16T19:05:34.036Z,101072
2018-04-16T19:08:03.124Z,101080
2018-04-16T19:10:32.363Z,101085
2018-04-16T19:13:00.820Z,101101
2018-04-16T19:15:30.117Z,101107
2018-04-16T19:17:58.532Z,101106
2018-04-16T19:20:33.480Z,101113
2018-04-16T19:23:01.987Z,101117
2018-04-16T19:25:31.186Z,101119
2018-04-16T19:28:05.949Z,101126
2018-04-16T19:30:34.857Z,101127
2018-04-16T19:33:08.694Z,101131
2018-04-16T19:35:37.173Z,101139
2018-04-16T19:38:05.606Z,101144
2018-04-16T19:40:35.065Z,101144
2018-04-16T19:43:06.212Z,101149
2018-04-16T19:45:36.225Z,101152
2018-04-16T19:48:05.435Z,101159
2018-04-16T19:50:35.831Z,101164
2018-04-16T19:53:05.392Z,101166
2018-04-16T19:55:39.419Z,101176
2018-04-16T19:58:13.402Z,101169
2018-04-16T20:00:42.729Z,101176
2018-04-16T20:03:16.677Z,101174
2018-04-16T20:05:45.199Z,101181
2018-04-16T20:08:14.369Z,101184
2018-04-16T20:10:42.914Z,101184
2018-04-16T20:13:11.310Z,101192
2018-04-16T20:15:39.675Z,101196
2018-04-16T20:18:08.243Z,101202
2018-04-16T20:20:36.683Z,101205
2018-04-16T20:23:06.970Z,101206
2018-04-16T20:25:36.341Z,101211
2018-04-16T20:28:04.774Z,101189
2018-04-16T20:30:33.950Z,101220
2018-04-16T20:33:02.500Z,101224
2018-04-16T20:35:30.887Z,101234
2018-04-16T20:37:59.601Z,101226
2018-04-16T20:40:28.034Z,101230
2018-04-16T20:42:56.605Z,101234
2018-04-16T20:45:25.766Z,101243
2018-04-16T20:47:54.170Z,101241
2018-04-16T20:50:23.386Z,101243
2018-04-16T20:52:51.755Z,101245
2018-04-16T20:55:20.986Z,101247
2018-04-16T20:57:49.302Z,101247
2018-04-16T21:00:17.616Z,101245
2018-04-16T21:02:46.105Z,101247
2018-04-16T21:05:14.690Z,101246
2018-04-16T21:07:43.087Z,101248
2018-04-16T21:10:11.456Z,101254
2018-04-16T21:12:39.869Z,101258
2018-04-16T21:15:08.191Z,101262
2018-04-16T21:17:37.277Z,101263
2018-04-16T21:20:06.444Z,101266
2018-04-16T21:22:34.791Z,101274
2018-04-16T21:25:03.378Z,101279
2018-04-16T21:27:31.723Z,101286
2018-04-16T21:30:01.016Z,101285
2018-04-16T21:32:30.339Z,101279
2018-04-16T21:34:58.707Z,101280
2018-04-16T21:37:26.994Z,101275
2018-04-16T21:39:55.303Z,101275
2018-04-16T21:42:23.761Z,101276
2018-04-16T21:44:52.123Z,101281
2018-04-16T21:47:20.740Z,101282
2018-04-16T21:49:49.045Z,101287
2018-04-16T21:52:17.447Z,101284
2018-04-16T21:54:46.635Z,101292
2018-04-16T21:57:15.709Z,101291
2018-04-16T21:59:44.041Z,101304
2018-04-16T22:02:12.397Z,101305
2018-04-16T22:04:42.632Z,101305
2018-04-16T22:07:10.935Z,101308
2018-04-16T22:09:39.312Z,101307
2018-04-16T22:12:07.620Z,101312
2018-04-16T22:14:35.925Z,101309
2018-04-16T22:17:04.595Z,101308
2018-04-16T22:19:32.942Z,101312
2018-04-16T22:22:01.348Z,101314
2018-04-16T22:24:29.691Z,101318
2018-04-16T22:26:58.005Z,101320
2018-04-16T22:29:26.432Z,101324
2018-04-16T22:31:54.895Z,101327
2018-04-16T22:34:25.158Z,101326
2018-04-16T22:36:53.452Z,101334
2018-04-16T22:39:21.917Z,101336
2018-04-16T22:41:50.477Z,101338
2018-04-16T22:44:18.807Z,101346
2018-04-16T22:46:48.030Z,101352
2018-04-16T22:49:16.401Z,101351
2018-04-16T22:51:45.855Z,101358
2018-04-16T22:54:14.184Z,101358
2018-04-16T22:56:43.360Z,101360
2018-04-16T22:59:11.848Z,101358
2018-04-16T23:01:40.378Z,101360
2018-04-16T23:04:08.721Z,101366
2018-04-16T23:06:37.957Z,101369
2018-04-16T23:09:07.456Z,101374
2018-04-16T23:11:35.739Z,101373
2018-04-16T23:14:04.158Z,101375
2018-04-16T23:16:33.288Z,101377
2018-04-16T23:19:01.615Z,101385
2018-04-16T23:21:29.944Z,101382
2018-04-16T23:23:58.419Z,101385
2018-04-16T23:26:26.714Z,101387
2018-04-16T23:28:55.094Z,101389
2018-04-16T23:31:23.494Z,101396
2018-04-16T23:33:51.902Z,101395
2018-04-16T23:36:20.270Z,101403
2018-04-16T23:38:49.506Z,101402
2018-04-16T23:41:17.856Z,101402
2018-04-16T23:43:46.157Z,101402
2018-04-16T23:46:14.628Z,101403
2018-04-16T23:48:43.816Z,101408
2018-04-16T23:51:13.125Z,101405
2018-04-16T23:53:42.235Z,101404
2018-04-16T23:56:11.285Z,101400
2018-04-16T23:58:39.709Z,101406
